createdAt,value
2022-09-22T00:01:47.223Z,10.45
2022-09-22T00:03:52.443Z,10.43
2022-09-22T00:06:01.973Z,10.42
2022-09-22T00:08:03.429Z,10.43
2022-09-22T00:10:05.205Z,10.43
2022-09-22T00:12:07.020Z,10.44
2022-09-22T00:14:10.742Z,10.40
2022-09-22T00:16:13.553Z,10.37
2022-09-22T00:18:15.033Z,10.37
2022-09-22T00:20:17.689Z,10.41
2022-09-22T00:22:19.257Z,10.36
2022-09-22T00:24:22.239Z,10.32
2022-09-22T00:26:24.403Z,10.26
2022-09-22T00:28:25.899Z,10.27
2022-09-22T00:30:27.332Z,10.29
2022-09-22T00:32:28.622Z,10.29
2022-09-22T00:34:30.084Z,10.31
2022-09-22T00:36:33.020Z,10.24
2022-09-22T00:38:35.433Z,10.22
2022-09-22T00:40:37.208Z,10.07
2022-09-22T00:42:38.755Z,9.89
2022-09-22T00:44:41.004Z,9.74
2022-09-22T00:46:46.102Z,9.65
2022-09-22T00:48:51.473Z,9.72
2022-09-22T00:50:54.537Z,9.65
2022-09-22T00:53:00.578Z,9.61
2022-09-22T00:55:07.002Z,9.64
2022-09-22T00:57:13.567Z,9.55
2022-09-22T00:59:19.044Z,9.52
2022-09-22T01:01:20.903Z,9.50
2022-09-22T01:03:28.987Z,9.48
2022-09-22T01:05:33.368Z,9.42
2022-09-22T01:07:36.073Z,9.30
2022-09-22T01:09:38.878Z,9.29
2022-09-22T01:11:41.501Z,9.27
2022-09-22T01:13:53.317Z,9.22
2022-09-22T01:16:09.240Z,9.24
2022-09-22T01:18:19.769Z,9.21
2022-09-22T01:21:00.943Z,9.18
2022-09-22T01:23:20.300Z,9.07
2022-09-22T01:25:49.063Z,9.09
2022-09-22T01:28:19.723Z,9.00
2022-09-22T01:30:24.857Z,8.96
2022-09-22T01:32:31.460Z,8.96
2022-09-22T01:34:39.672Z,8.99
2022-09-22T01:36:47.302Z,8.93
2022-09-22T01:38:59.204Z,8.94
2022-09-22T01:41:03.759Z,8.94
2022-09-22T01:43:13.460Z,8.98
2022-09-22T01:45:17.866Z,8.93
2022-09-22T01:47:24.222Z,8.93
2022-09-22T01:49:28.968Z,8.91
2022-09-22T01:51:35.461Z,8.85
2022-09-22T01:53:41.028Z,8.87
2022-09-22T01:55:46.651Z,8.89
2022-09-22T01:57:55.426Z,8.92
2022-09-22T02:00:02.236Z,8.91
2022-09-22T02:02:10.408Z,8.86
2022-09-22T02:04:18.374Z,8.86
2022-09-22T02:06:26.759Z,8.94
2022-09-22T02:08:35.611Z,8.95
2022-09-22T02:10:42.063Z,8.98
2022-09-22T02:12:43.747Z,9.00
2022-09-22T02:14:46.190Z,9.09
2022-09-22T02:16:47.742Z,9.08
2022-09-22T02:18:53.277Z,9.15
2022-09-22T02:20:56.313Z,9.09
2022-09-22T02:22:57.872Z,9.20
2022-09-22T02:24:59.294Z,9.23
2022-09-22T02:27:04.455Z,9.22
2022-09-22T02:29:10.248Z,9.29
2022-09-22T02:31:20.956Z,9.27
2022-09-22T02:33:25.845Z,9.22
2022-09-22T02:35:32.531Z,9.18
2022-09-22T02:37:39.741Z,9.17
2022-09-22T02:39:46.924Z,9.12
2022-09-22T02:42:01.752Z,9.13
2022-09-22T02:44:08.479Z,9.16
2022-09-22T02:46:17.687Z,9.10
2022-09-22T02:48:23.546Z,9.05
2022-09-22T02:50:27.806Z,9.01
2022-09-22T02:52:29.390Z,8.94
2022-09-22T02:54:32.239Z,8.91
2022-09-22T02:56:34.582Z,8.86
2022-09-22T02:58:36.449Z,8.81
2022-09-22T03:00:37.905Z,8.76
2022-09-22T03:02:39.200Z,8.72
2022-09-22T03:04:40.865Z,8.67
2022-09-22T03:06:42.456Z,8.68
2022-09-22T03:08:44.072Z,8.67
2022-09-22T03:10:46.925Z,8.57
2022-09-22T03:13:14.336Z,8.62
2022-09-22T03:15:10.491Z,8.57
2022-09-22T03:17:11.956Z,8.63
2022-09-22T03:19:13.263Z,8.67
2022-09-22T03:21:14.751Z,8.74
2022-09-22T03:23:16.048Z,8.67
2022-09-22T03:25:17.905Z,8.67
2022-09-22T03:27:20.743Z,8.69
2022-09-22T03:29:22.237Z,8.71
2022-09-22T03:31:23.577Z,8.75
2022-09-22T03:33:25.138Z,8.76
2022-09-22T03:35:26.475Z,8.69
2022-09-22T03:37:28.017Z,8.70
2022-09-22T03:39:29.517Z,8.75
2022-09-22T03:41:30.844Z,8.65
2022-09-22T03:43:33.626Z,8.68
2022-09-22T03:45:35.077Z,8.66
2022-09-22T03:47:36.395Z,8.64
2022-09-22T03:49:37.843Z,8.59
2022-09-22T03:51:39.133Z,8.59
2022-09-22T03:53:40.604Z,8.60
2022-09-22T03:55:41.893Z,8.47
2022-09-22T03:57:43.440Z,8.49
2022-09-22T03:59:46.315Z,8.40
2022-09-22T04:01:47.789Z,8.36
2022-09-22T04:03:49.111Z,8.25
2022-09-22T04:05:51.213Z,8.35
2022-09-22T04:07:53.082Z,8.21
2022-09-22T04:09:54.522Z,8.30
2022-09-22T04:11:55.941Z,8.21
2022-09-22T04:13:57.545Z,8.27
2022-09-22T04:16:00.569Z,8.27
2022-09-22T04:18:02.488Z,8.21
2022-09-22T04:20:04.965Z,8.20
2022-09-22T04:22:06.455Z,8.20
2022-09-22T04:24:07.907Z,8.21
2022-09-22T04:26:09.356Z,8.21
2022-09-22T04:28:10.652Z,8.16
2022-09-22T04:30:12.943Z,8.02
2022-09-22T04:32:16.438Z,8.07
2022-09-22T04:34:17.969Z,8.05
2022-09-22T04:36:19.296Z,8.06
2022-09-22T04:38:20.804Z,7.96
2022-09-22T04:40:22.784Z,8.07
2022-09-22T04:42:24.426Z,8.06
2022-09-22T04:44:25.878Z,8.05
2022-09-22T04:46:27.210Z,8.06
2022-09-22T04:48:30.109Z,8.05
2022-09-22T04:50:31.630Z,8.09
2022-09-22T04:52:32.952Z,8.04
2022-09-22T04:54:34.404Z,8.03
2022-09-22T04:56:35.860Z,7.94
2022-09-22T04:58:37.145Z,7.89
2022-09-22T05:00:38.682Z,7.89
2022-09-22T05:02:40.221Z,7.85
2022-09-22T05:04:43.100Z,7.81
2022-09-22T05:06:44.826Z,7.78
2022-09-22T05:08:46.252Z,7.86
2022-09-22T05:10:47.730Z,7.90
2022-09-22T05:12:49.050Z,7.83
2022-09-22T05:14:50.514Z,7.91
2022-09-22T05:16:51.829Z,8.03
2022-09-22T05:18:53.374Z,8.27
2022-09-22T05:20:56.048Z,8.46
2022-09-22T05:22:57.584Z,8.71
2022-09-22T05:24:59.237Z,8.90
2022-09-22T05:27:00.705Z,9.14
2022-09-22T05:29:02.023Z,9.28
2022-09-22T05:31:04.149Z,9.43
2022-09-22T05:33:05.623Z,9.62
2022-09-22T05:35:07.241Z,9.77
2022-09-22T05:37:10.170Z,9.81
2022-09-22T05:39:11.642Z,9.43
2022-09-22T05:41:12.940Z,9.16
2022-09-22T05:43:14.551Z,9.35
2022-09-22T05:45:17.211Z,9.21
2022-09-22T05:47:18.820Z,9.37
2022-09-22T05:49:20.298Z,9.34
2022-09-22T05:51:21.600Z,9.34
2022-09-22T05:53:24.403Z,9.31
2022-09-22T05:55:25.890Z,9.52
2022-09-22T05:57:27.200Z,9.69
2022-09-22T05:59:28.654Z,9.74
2022-09-22T06:01:30.025Z,9.79
2022-09-22T06:03:31.665Z,9.82
2022-09-22T06:05:36.052Z,9.70
2022-09-22T06:07:39.774Z,9.51
2022-09-22T06:09:42.750Z,9.50
2022-09-22T06:11:44.170Z,9.58
2022-09-22T06:13:45.490Z,9.79
2022-09-22T06:15:47.562Z,9.88
2022-09-22T06:17:51.453Z,10.11
2022-09-22T06:19:53.045Z,10.39
2022-09-22T06:21:54.517Z,10.54
2022-09-22T06:23:55.846Z,10.54
2022-09-22T06:25:59.198Z,10.63
2022-09-22T06:28:01.654Z,10.63
2022-09-22T06:30:03.755Z,10.58
2022-09-22T06:32:07.413Z,10.63
2022-09-22T06:34:08.974Z,10.58
2022-09-22T06:36:10.271Z,10.61
2022-09-22T06:38:13.647Z,10.54
2022-09-22T06:40:17.508Z,10.48
2022-09-22T06:42:20.543Z,10.42
2022-09-22T06:44:22.190Z,10.51
2022-09-22T06:46:23.977Z,10.59
2022-09-22T06:48:25.525Z,10.71
2022-09-22T06:50:30.331Z,10.73
2022-09-22T06:52:35.508Z,10.81
2022-09-22T06:54:38.417Z,10.67
2022-09-22T06:56:39.755Z,10.66
2022-09-22T06:59:05.540Z,10.80
2022-09-22T07:01:08.892Z,10.82
2022-09-22T07:03:16.137Z,10.75
2022-09-22T07:05:17.590Z,10.89
2022-09-22T07:07:18.883Z,10.84
2022-09-22T07:09:20.379Z,10.93
2022-09-22T07:11:21.715Z,11.01
2022-09-22T07:13:23.595Z,10.98
2022-09-22T07:15:26.444Z,11.03
2022-09-22T07:17:27.889Z,11.20
2022-09-22T07:19:29.182Z,11.36
2022-09-22T07:21:32.211Z,11.47
2022-09-22T07:23:34.608Z,11.54
2022-09-22T07:25:36.114Z,11.55
2022-09-22T07:27:37.463Z,11.67
2022-09-22T07:29:39.559Z,11.70
2022-09-22T07:31:42.432Z,11.77
2022-09-22T07:33:46.329Z,11.93
2022-09-22T07:35:47.856Z,11.88
2022-09-22T07:37:53.575Z,11.95
2022-09-22T07:39:55.063Z,11.77
2022-09-22T07:41:56.365Z,11.86
2022-09-22T07:43:59.475Z,12.01
2022-09-22T07:46:01.237Z,12.07
2022-09-22T07:48:05.174Z,12.15
2022-09-22T07:50:07.446Z,12.07
2022-09-22T07:52:08.979Z,12.33
2022-09-22T07:54:10.750Z,12.45
2022-09-22T07:56:14.325Z,12.60
2022-09-22T07:58:25.149Z,12.69
2022-09-22T08:00:29.306Z,12.82
2022-09-22T08:02:30.820Z,12.92
2022-09-22T08:04:33.652Z,12.78
2022-09-22T08:06:35.130Z,12.86
2022-09-22T08:08:41.358Z,13.07
2022-09-22T08:10:43.057Z,13.03
2022-09-22T08:12:44.754Z,13.15
2022-09-22T08:14:46.205Z,13.25
2022-09-22T08:16:47.536Z,13.16
2022-09-22T08:18:50.434Z,13.22
2022-09-22T08:20:53.243Z,13.20
2022-09-22T08:22:55.036Z,13.21
2022-09-22T08:24:56.510Z,12.97
2022-09-22T08:26:58.105Z,13.24
2022-09-22T08:28:59.769Z,13.44
2022-09-22T08:31:02.004Z,13.63
2022-09-22T08:33:03.606Z,13.73
2022-09-22T08:35:06.211Z,13.90
2022-09-22T08:37:09.127Z,13.86
2022-09-22T08:39:10.581Z,14.01
2022-09-22T08:41:17.521Z,13.88
2022-09-22T08:43:18.983Z,13.69
2022-09-22T08:45:29.896Z,13.53
2022-09-22T08:47:37.013Z,13.45
2022-09-22T08:49:43.086Z,13.20
2022-09-22T08:51:49.553Z,12.91
2022-09-22T08:53:52.910Z,12.79
2022-09-22T08:56:01.046Z,12.87
2022-09-22T08:58:07.503Z,12.89
2022-09-22T09:00:13.053Z,13.07
2022-09-22T09:02:38.489Z,12.93
2022-09-22T09:05:00.443Z,13.12
2022-09-22T09:07:10.161Z,13.27
2022-09-22T09:09:33.749Z,13.56
2022-09-22T09:11:56.506Z,13.71
2022-09-22T09:14:12.369Z,13.78
2022-09-22T09:16:30.907Z,13.71
2022-09-22T09:18:38.976Z,13.71
2022-09-22T09:20:44.875Z,13.65
2022-09-22T09:22:50.760Z,13.75
2022-09-22T09:27:23.041Z,13.55
2022-09-22T09:29:30.824Z,13.29
2022-09-22T09:31:34.699Z,13.26
2022-09-22T09:33:54.539Z,13.47
2022-09-22T09:35:56.321Z,13.53
2022-09-22T09:38:00.902Z,13.71
2022-09-22T09:40:07.395Z,13.92
2022-09-22T09:42:22.568Z,14.14
2022-09-22T09:44:27.964Z,14.22
2022-09-22T09:46:43.785Z,14.31
2022-09-22T09:49:01.659Z,14.17
2022-09-22T09:51:03.351Z,14.09
2022-09-22T09:53:08.421Z,14.13
2022-09-22T09:55:19.888Z,14.05
2022-09-22T09:57:27.485Z,14.16
2022-09-22T09:59:29.752Z,14.42
2022-09-22T10:01:31.272Z,14.57
2022-09-22T10:03:34.193Z,14.75
2022-09-22T10:05:36.039Z,14.76
2022-09-22T10:07:42.212Z,14.80
2022-09-22T10:09:44.535Z,14.88
2022-09-22T10:11:57.906Z,14.99
2022-09-22T10:13:59.414Z,15.11
2022-09-22T10:16:07.687Z,14.70
2022-09-22T10:18:33.549Z,14.52
2022-09-22T10:20:35.232Z,14.39
2022-09-22T10:22:39.729Z,14.29
2022-09-22T10:24:52.880Z,14.43
2022-09-22T10:26:55.941Z,14.41
2022-09-22T10:29:13.381Z,14.70
2022-09-22T10:31:20.622Z,14.99
2022-09-22T10:33:22.147Z,15.06
2022-09-22T10:35:29.495Z,15.20
2022-09-22T10:37:31.833Z,15.41
2022-09-22T10:39:40.031Z,15.44
2022-09-22T10:41:42.241Z,15.36
2022-09-22T10:43:49.152Z,15.40
2022-09-22T10:46:01.163Z,15.39
2022-09-22T10:48:13.633Z,15.80
2022-09-22T10:50:53.302Z,16.07
2022-09-22T10:53:01.271Z,16.26
2022-09-22T10:55:20.603Z,16.43
2022-09-22T10:57:38.406Z,16.65
2022-09-22T11:00:08.847Z,16.83
2022-09-22T11:02:37.756Z,16.95
2022-09-22T11:04:54.792Z,16.82
2022-09-22T11:07:12.499Z,16.46
2022-09-22T11:09:23.108Z,16.44
2022-09-22T11:11:27.928Z,16.43
2022-09-22T11:13:39.031Z,16.45
2022-09-22T11:15:58.551Z,16.26
2022-09-22T11:18:15.786Z,16.03
2022-09-22T11:20:34.696Z,16.08
2022-09-22T11:23:04.496Z,16.15
2022-09-22T11:25:18.114Z,16.23
2022-09-22T11:27:25.854Z,16.21
2022-09-22T11:29:54.520Z,16.34
2022-09-22T11:32:06.540Z,16.17
2022-09-22T11:34:36.434Z,15.86
2022-09-22T11:36:51.573Z,15.71
2022-09-22T11:39:19.745Z,15.43
2022-09-22T11:41:29.594Z,15.59
2022-09-22T11:43:47.355Z,15.47
2022-09-22T11:45:56.539Z,15.31
2022-09-22T11:48:11.201Z,15.25
2022-09-22T11:50:27.815Z,15.25
2022-09-22T11:52:40.415Z,15.39
2022-09-22T11:55:00.835Z,15.42
2022-09-22T11:57:07.342Z,15.67
2022-09-22T11:59:24.818Z,15.72
2022-09-22T12:01:31.871Z,15.80
2022-09-22T12:03:39.070Z,15.87
2022-09-22T12:05:44.636Z,16.14
2022-09-22T12:07:51.321Z,16.08
2022-09-22T12:09:57.936Z,16.20
2022-09-22T12:12:02.799Z,16.17
2022-09-22T12:14:05.476Z,15.81
2022-09-22T12:16:13.121Z,15.81
2022-09-22T12:18:16.279Z,15.81
2022-09-22T12:20:35.286Z,15.92
2022-09-22T12:22:58.388Z,15.65
2022-09-22T12:24:59.919Z,15.48
2022-09-22T12:27:10.778Z,15.17
2022-09-22T12:29:23.966Z,15.06
2022-09-22T12:31:33.545Z,15.06
2022-09-22T12:33:37.449Z,14.82
2022-09-22T12:35:40.414Z,14.77
2022-09-22T12:37:42.008Z,14.87
2022-09-22T12:39:46.489Z,14.79
2022-09-22T12:41:49.374Z,14.77
2022-09-22T12:43:50.878Z,14.64
2022-09-22T12:45:54.797Z,14.72
2022-09-22T12:47:59.682Z,14.87
2022-09-22T12:50:03.952Z,14.90
2022-09-22T12:52:36.736Z,14.83
2022-09-22T12:54:38.605Z,14.84
2022-09-22T12:56:44.770Z,14.83
2022-09-22T12:58:46.271Z,14.84
2022-09-22T13:00:48.896Z,14.86
2022-09-22T13:02:50.463Z,14.82
2022-09-22T13:05:29.294Z,14.81
2022-09-22T13:07:35.649Z,14.72
2022-09-22T13:09:37.179Z,14.67
2022-09-22T13:12:20.057Z,14.69
2022-09-22T13:15:00.280Z,14.65
2022-09-22T13:17:38.529Z,14.52
2022-09-22T13:19:53.273Z,14.50
2022-09-22T13:21:54.785Z,14.54
2022-09-22T13:23:58.445Z,14.42
2022-09-22T13:26:07.224Z,14.46
2022-09-22T13:28:14.608Z,14.48
2022-09-22T13:30:16.094Z,14.33
2022-09-22T13:32:20.432Z,14.26
2022-09-22T13:34:28.205Z,14.39
2022-09-22T13:36:29.658Z,14.46
2022-09-22T13:38:34.962Z,14.40
2022-09-22T13:40:36.574Z,14.65
2022-09-22T13:42:42.647Z,14.83
2022-09-22T13:44:48.078Z,14.88
2022-09-22T13:46:50.836Z,14.76
2022-09-22T13:48:55.471Z,14.65
2022-09-22T13:51:02.388Z,14.56
2022-09-22T13:53:06.679Z,14.50
2022-09-22T13:55:13.231Z,14.38
2022-09-22T13:57:21.721Z,14.42
2022-09-22T13:59:24.569Z,14.57
2022-09-22T14:01:28.240Z,14.83
2022-09-22T14:03:36.078Z,15.03
2022-09-22T14:05:37.608Z,15.09
2022-09-22T14:08:01.033Z,15.04
2022-09-22T14:10:03.079Z,14.95
2022-09-22T14:12:08.262Z,14.79
2022-09-22T14:14:21.820Z,14.65
2022-09-22T14:16:28.379Z,14.55
2022-09-22T14:18:30.656Z,14.50
2022-09-22T14:20:32.303Z,14.42
2022-09-22T14:22:43.161Z,14.30
2022-09-22T14:24:48.513Z,14.24
2022-09-22T14:26:52.593Z,14.18
2022-09-22T14:28:56.742Z,14.04
2022-09-22T14:30:58.532Z,13.98
2022-09-22T14:33:03.176Z,14.00
2022-09-22T14:35:07.654Z,13.93
2022-09-22T14:37:18.534Z,13.93
2022-09-22T14:39:30.967Z,13.91
2022-09-22T14:41:36.941Z,13.87
2022-09-22T14:43:38.423Z,13.89
2022-09-22T14:45:56.059Z,13.88
2022-09-22T14:48:16.258Z,13.85
2022-09-22T14:50:19.584Z,13.83
2022-09-22T14:52:29.332Z,13.79
2022-09-22T14:54:33.316Z,13.71
2022-09-22T14:56:35.078Z,13.67
2022-09-22T14:58:40.785Z,13.67
2022-09-22T15:00:51.701Z,13.68
2022-09-22T15:02:54.511Z,13.61
2022-09-22T15:04:56.001Z,13.59
2022-09-22T15:06:58.763Z,13.56
2022-09-22T15:09:02.545Z,13.54
2022-09-22T15:11:05.581Z,13.57
2022-09-22T15:13:18.019Z,13.58
2022-09-22T15:15:21.388Z,13.57
2022-09-22T15:17:38.438Z,13.58
2022-09-22T15:19:39.869Z,13.56
2022-09-22T15:21:42.661Z,13.59
2022-09-22T15:23:46.946Z,13.60
2022-09-22T15:25:49.325Z,13.60
2022-09-22T15:27:52.228Z,13.60
2022-09-22T15:29:53.660Z,13.59
2022-09-22T15:31:55.192Z,13.63
2022-09-22T15:33:58.353Z,13.59
2022-09-22T15:36:02.947Z,13.58
2022-09-22T15:38:04.829Z,13.65
2022-09-22T15:40:14.461Z,13.63
2022-09-22T15:42:16.139Z,13.67
2022-09-22T15:44:19.336Z,13.66
2022-09-22T15:46:27.565Z,13.67
2022-09-22T15:48:31.312Z,13.66
2022-09-22T15:50:33.302Z,13.62
2022-09-22T15:52:34.758Z,13.67
2022-09-22T15:54:36.260Z,13.58
2022-09-22T15:56:38.543Z,13.73
2022-09-22T15:58:42.620Z,13.68
2022-09-22T16:00:46.681Z,13.74
2022-09-22T16:02:48.645Z,13.72
2022-09-22T16:04:50.245Z,13.74
2022-09-22T16:06:55.461Z,13.74
2022-09-22T16:08:57.000Z,13.68
2022-09-22T16:10:59.171Z,13.66
2022-09-22T16:13:00.608Z,13.60
2022-09-22T16:15:02.048Z,13.61
2022-09-22T16:17:05.004Z,13.58
2022-09-22T16:19:06.719Z,13.62
2022-09-22T16:21:23.867Z,13.60
2022-09-22T16:23:25.357Z,13.62
2022-09-22T16:25:26.779Z,13.66
2022-09-22T16:27:28.331Z,13.71
2022-09-22T16:29:29.810Z,13.71
2022-09-22T16:31:31.633Z,13.66
2022-09-22T16:33:34.943Z,13.68
2022-09-22T16:35:36.448Z,13.69
2022-09-22T16:37:37.887Z,13.68
2022-09-22T16:39:39.346Z,13.66
2022-09-22T16:41:44.531Z,13.61
2022-09-22T16:43:46.269Z,13.59
2022-09-22T16:45:47.728Z,13.57
2022-09-22T16:47:49.221Z,13.50
2022-09-22T16:49:52.033Z,13.42
2022-09-22T16:51:53.529Z,13.37
2022-09-22T16:53:55.145Z,13.30
2022-09-22T16:55:56.716Z,13.23
2022-09-22T16:57:58.397Z,13.17
2022-09-22T16:59:59.978Z,13.12
2022-09-22T17:02:01.482Z,13.06
2022-09-22T17:04:04.193Z,12.99
2022-09-22T17:06:08.529Z,12.92
2022-09-22T17:08:10.015Z,12.84
2022-09-22T17:10:11.471Z,12.83
2022-09-22T17:12:12.938Z,12.80
2022-09-22T17:14:16.203Z,12.66
2022-09-22T17:16:20.987Z,12.52
2022-09-22T17:18:22.513Z,12.46
2022-09-22T17:20:23.944Z,12.47
2022-09-22T17:22:26.725Z,12.44
2022-09-22T17:24:28.221Z,12.39
2022-09-22T17:26:31.873Z,12.29
2022-09-22T17:28:33.648Z,12.26
2022-09-22T17:30:35.087Z,12.21
2022-09-22T17:32:36.508Z,12.21
2022-09-22T17:34:38.096Z,12.12
2022-09-22T17:36:39.934Z,12.06
2022-09-22T17:38:42.827Z,12.09
2022-09-22T17:40:44.296Z,11.99
2022-09-22T17:42:45.920Z,11.95
2022-09-22T17:44:47.838Z,11.89
2022-09-22T17:46:50.331Z,11.78
2022-09-22T17:48:52.142Z,11.67
2022-09-22T17:50:53.550Z,11.62
2022-09-22T17:52:54.876Z,11.60
2022-09-22T17:54:59.537Z,11.61
2022-09-22T17:57:00.975Z,11.55
2022-09-22T17:59:02.419Z,11.52
2022-09-22T18:01:04.061Z,11.45
2022-09-22T18:03:05.609Z,11.42
2022-09-22T18:05:09.682Z,11.37
2022-09-22T18:07:13.064Z,11.33
2022-09-22T18:09:14.568Z,11.29
2022-09-22T18:11:17.341Z,11.24
2022-09-22T18:13:18.805Z,11.27
2022-09-22T18:15:20.311Z,11.21
2022-09-22T18:17:24.179Z,11.16
2022-09-22T18:19:25.624Z,11.06
2022-09-22T18:21:27.106Z,11.01
2022-09-22T18:23:28.620Z,10.90
2022-09-22T18:25:30.115Z,10.75
2022-09-22T18:27:32.901Z,10.83
2022-09-22T18:29:34.466Z,10.79
2022-09-22T18:31:36.451Z,10.66
2022-09-22T18:33:37.892Z,10.64
2022-09-22T18:35:41.280Z,10.61
2022-09-22T18:37:45.742Z,10.60
2022-09-22T18:39:47.343Z,10.56
2022-09-22T18:41:48.849Z,10.53
2022-09-22T18:43:51.692Z,10.49
2022-09-22T18:45:53.164Z,10.41
2022-09-22T18:47:54.615Z,10.36
2022-09-22T18:49:56.062Z,10.33
2022-09-22T18:51:57.855Z,10.28
2022-09-22T18:53:59.429Z,10.26
2022-09-22T18:56:07.915Z,10.21
2022-09-22T18:58:09.361Z,10.19
2022-09-22T19:00:14.271Z,10.18
2022-09-22T19:02:15.896Z,10.13
2022-09-22T19:04:19.274Z,10.12
2022-09-22T19:06:20.799Z,10.09
2022-09-22T19:08:22.328Z,10.05
2022-09-22T19:10:23.877Z,9.98
2022-09-22T19:12:25.325Z,9.85
2022-09-22T19:14:26.710Z,9.88
2022-09-22T19:16:29.482Z,9.85
2022-09-22T19:18:30.937Z,9.79
2022-09-22T19:20:32.258Z,9.76
2022-09-22T19:22:33.696Z,9.78
2022-09-22T19:24:35.325Z,9.74
2022-09-22T19:26:37.196Z,9.72
2022-09-22T19:28:38.693Z,9.70
2022-09-22T19:30:40.153Z,9.70
2022-09-22T19:32:42.865Z,9.68
2022-09-22T19:34:44.558Z,9.61
2022-09-22T19:36:46.003Z,9.59
2022-09-22T19:38:47.317Z,9.59
2022-09-22T19:40:48.842Z,9.60
2022-09-22T19:42:50.823Z,9.56
2022-09-22T19:44:52.332Z,9.56
2022-09-22T19:46:53.799Z,9.52
2022-09-22T19:48:56.679Z,9.51
2022-09-22T19:50:58.184Z,9.52
2022-09-22T19:52:59.638Z,9.41
2022-09-22T19:55:00.920Z,9.40
2022-09-22T19:57:02.358Z,9.39
2022-09-22T19:59:03.683Z,9.52
2022-09-22T20:01:06.880Z,9.55
2022-09-22T20:03:08.435Z,9.49
2022-09-22T20:05:18.193Z,9.34
2022-09-22T20:07:19.744Z,9.25
2022-09-22T20:09:21.253Z,9.17
2022-09-22T20:11:26.609Z,9.12
2022-09-22T20:13:28.387Z,9.13
2022-09-22T20:15:29.803Z,9.04
2022-09-22T20:17:31.285Z,9.02
2022-09-22T20:19:33.444Z,8.97
2022-09-22T20:21:36.822Z,8.93
2022-09-22T20:23:38.365Z,8.93
2022-09-22T20:25:39.956Z,8.91
2022-09-22T20:27:41.459Z,8.88
2022-09-22T20:29:42.779Z,8.83
2022-09-22T20:31:44.686Z,8.82
2022-09-22T20:33:46.234Z,8.82
2022-09-22T20:35:48.554Z,8.86
2022-09-22T20:37:51.586Z,8.85
2022-09-22T20:39:53.264Z,8.80
2022-09-22T20:41:54.774Z,8.83
2022-09-22T20:43:56.295Z,8.80
2022-09-22T20:46:00.278Z,8.80
2022-09-22T20:48:02.030Z,8.80
2022-09-22T20:50:04.124Z,8.81
2022-09-22T20:52:05.682Z,8.84
2022-09-22T20:54:08.659Z,8.80
2022-09-22T20:56:11.718Z,8.79
2022-09-22T20:58:13.266Z,8.77
2022-09-22T21:00:15.074Z,8.76
2022-09-22T21:02:16.613Z,8.75
2022-09-22T21:04:18.218Z,8.72
2022-09-22T21:06:19.791Z,8.69
2022-09-22T21:08:21.283Z,8.70
2022-09-22T21:10:24.249Z,8.65
2022-09-22T21:12:30.795Z,8.67
2022-09-22T21:14:32.923Z,8.71
2022-09-22T21:16:36.301Z,8.71
2022-09-22T21:18:38.292Z,8.72
2022-09-22T21:20:40.389Z,8.72
2022-09-22T21:22:41.948Z,8.74
2022-09-22T21:24:43.473Z,8.69
2022-09-22T21:26:46.423Z,8.64
2022-09-22T21:28:50.120Z,8.61
2022-09-22T21:30:55.506Z,8.65
2022-09-22T21:32:57.089Z,8.66
2022-09-22T21:34:58.474Z,8.64
2022-09-22T21:36:59.974Z,8.60
2022-09-22T21:39:01.321Z,8.56
2022-09-22T21:41:04.355Z,8.52
2022-09-22T21:43:07.293Z,8.44
2022-09-22T21:45:09.513Z,8.46
2022-09-22T21:47:11.071Z,8.49
2022-09-22T21:49:12.663Z,8.51
2022-09-22T21:51:16.102Z,8.54
2022-09-22T21:53:17.555Z,8.48
2022-09-22T21:55:18.849Z,8.52
2022-09-22T21:57:20.402Z,8.48
2022-09-22T21:59:23.275Z,8.39
2022-09-22T22:01:27.546Z,8.38
2022-09-22T22:03:29.030Z,8.37
2022-09-22T22:05:30.343Z,8.34
2022-09-22T22:07:31.761Z,8.36
2022-09-22T22:09:33.062Z,8.32
2022-09-22T22:11:36.369Z,8.31
2022-09-22T22:13:39.419Z,8.30
2022-09-22T22:15:42.266Z,8.23
2022-09-22T22:17:43.775Z,8.17
2022-09-22T22:19:45.046Z,8.10
2022-09-22T22:21:48.252Z,8.09
2022-09-22T22:23:51.451Z,8.08
2022-09-22T22:25:55.998Z,8.13
2022-09-22T22:27:57.415Z,8.02
2022-09-22T22:29:58.891Z,7.99
2022-09-22T22:32:02.221Z,8.03
2022-09-22T22:34:03.646Z,8.06
2022-09-22T22:36:06.571Z,8.02
2022-09-22T22:38:08.070Z,7.94
2022-09-22T22:40:09.509Z,7.88
2022-09-22T22:42:11.028Z,7.83
2022-09-22T22:44:12.339Z,7.83
2022-09-22T22:46:13.861Z,7.82
2022-09-22T22:48:16.572Z,7.85
2022-09-22T22:50:18.037Z,7.85
2022-09-22T22:52:19.328Z,7.81
2022-09-22T22:54:20.792Z,7.77
2022-09-22T22:56:22.804Z,7.76
2022-09-22T22:58:26.102Z,8.00
2022-09-22T23:00:27.609Z,8.12
2022-09-22T23:02:29.666Z,8.07
2022-09-22T23:04:32.467Z,7.72
2022-09-22T23:06:35.864Z,7.63
2022-09-22T23:08:37.786Z,7.77
2022-09-22T23:10:39.225Z,7.61
2022-09-22T23:12:40.686Z,7.49
2022-09-22T23:14:41.977Z,7.35
2022-09-22T23:16:45.091Z,7.35
2022-09-22T23:18:47.582Z,7.43
2022-09-22T23:20:53.351Z,7.45
2022-09-22T23:22:54.785Z,7.39
2022-09-22T23:24:56.114Z,7.38
2022-09-22T23:26:57.540Z,7.41
2022-09-22T23:28:59.128Z,7.41
2022-09-22T23:31:02.315Z,7.37
2022-09-22T23:33:03.840Z,7.33
2022-09-22T23:35:05.603Z,7.32
2022-09-22T23:37:08.847Z,7.40
2022-09-22T23:39:12.019Z,7.43
2022-09-22T23:41:13.702Z,7.42
2022-09-22T23:43:15.211Z,7.71
2022-09-22T23:45:16.488Z,7.70
2022-09-22T23:47:18.166Z,7.75
2022-09-22T23:49:19.718Z,7.52
2022-09-22T23:51:21.182Z,7.45
2022-09-22T23:53:24.721Z,7.56
2022-09-22T23:55:26.316Z,7.58
2022-09-22T23:57:27.817Z,7.58
2022-09-22T23:59:29.094Z,7.47
